sensor_id;sensor_type;location;lat;lon;timestamp;P1;durP1;ratioP1;P2;durP2;ratioP2
51913;SDS011;37940;53.002;6.930;2022-08-05T00:00:59;10.50;;;6.20;;
51913;SDS011;37940;53.002;6.930;2022-08-05T00:03:25;11.50;;;6.13;;
51913;SDS011;37940;53.002;6.930;2022-08-05T00:05:51;12.80;;;6.50;;
51913;SDS011;37940;53.002;6.930;2022-08-05T00:08:16;13.35;;;6.82;;
51913;SDS011;37940;53.002;6.930;2022-08-05T00:10:43;10.20;;;6.43;;
51913;SDS011;37940;53.002;6.930;2022-08-05T00:13:09;11.00;;;6.90;;
51913;SDS011;37940;53.002;6.930;2022-08-05T00:15:34;12.77;;;7.07;;
51913;SDS011;37940;53.002;6.930;2022-08-05T00:18:00;10.85;;;6.45;;
51913;SDS011;37940;53.002;6.930;2022-08-05T00:20:26;12.07;;;7.13;;
51913;SDS011;37940;53.002;6.930;2022-08-05T00:22:51;14.30;;;7.30;;
51913;SDS011;37940;53.002;6.930;2022-08-05T00:25:17;13.70;;;7.50;;
51913;SDS011;37940;53.002;6.930;2022-08-05T00:27:43;12.23;;;7.40;;
51913;SDS011;37940;53.002;6.930;2022-08-05T00:30:09;13.52;;;7.82;;
51913;SDS011;37940;53.002;6.930;2022-08-05T00:32:34;12.73;;;7.10;;
51913;SDS011;37940;53.002;6.930;2022-08-05T00:35:00;12.23;;;6.95;;
51913;SDS011;37940;53.002;6.930;2022-08-05T00:37:26;12.98;;;7.85;;
51913;SDS011;37940;53.002;6.930;2022-08-05T00:39:52;10.80;;;6.65;;
51913;SDS011;37940;53.002;6.930;2022-08-05T00:42:39;11.48;;;6.72;;
51913;SDS011;37940;53.002;6.930;2022-08-05T00:45:05;12.23;;;7.40;;
51913;SDS011;37940;53.002;6.930;2022-08-05T00:47:32;11.98;;;7.03;;
51913;SDS011;37940;53.002;6.930;2022-08-05T00:49:58;14.00;;;6.82;;
51913;SDS011;37940;53.002;6.930;2022-08-05T00:52:23;13.80;;;7.57;;
51913;SDS011;37940;53.002;6.930;2022-08-05T00:54:49;14.57;;;8.20;;
51913;SDS011;37940;53.002;6.930;2022-08-05T00:57:15;9.60;;;6.85;;
51913;SDS011;37940;53.002;6.930;2022-08-05T00:59:41;11.05;;;6.97;;
51913;SDS011;37940;53.002;6.930;2022-08-05T01:02:07;11.10;;;7.00;;
51913;SDS011;37940;53.002;6.930;2022-08-05T01:04:32;12.90;;;7.20;;
51913;SDS011;37940;53.002;6.930;2022-08-05T01:06:58;10.95;;;7.10;;
51913;SDS011;37940;53.002;6.930;2022-08-05T01:09:24;15.07;;;7.35;;
51913;SDS011;37940;53.002;6.930;2022-08-05T01:11:51;12.35;;;7.00;;
51913;SDS011;37940;53.002;6.930;2022-08-05T01:14:22;9.73;;;6.60;;
51913;SDS011;37940;53.002;6.930;2022-08-05T01:16:52;13.40;;;6.72;;
51913;SDS011;37940;53.002;6.930;2022-08-05T01:25:04;12.57;;;7.40;;
51913;SDS011;37940;53.002;6.930;2022-08-05T01:30:58;11.68;;;6.90;;
51913;SDS011;37940;53.002;6.930;2022-08-05T01:33:59;15.07;;;7.20;;
51913;SDS011;37940;53.002;6.930;2022-08-05T01:36:35;11.50;;;7.22;;
51913;SDS011;37940;53.002;6.930;2022-08-05T01:39:06;10.00;;;6.57;;
51913;SDS011;37940;53.002;6.930;2022-08-05T01:41:33;11.90;;;6.82;;
51913;SDS011;37940;53.002;6.930;2022-08-05T01:44:00;12.75;;;6.28;;
51913;SDS011;37940;53.002;6.930;2022-08-05T01:46:27;11.95;;;6.97;;
51913;SDS011;37940;53.002;6.930;2022-08-05T01:48:54;12.30;;;6.50;;
51913;SDS011;37940;53.002;6.930;2022-08-05T01:51:22;10.48;;;6.93;;
51913;SDS011;37940;53.002;6.930;2022-08-05T01:53:49;10.75;;;6.55;;
51913;SDS011;37940;53.002;6.930;2022-08-05T01:56:16;11.98;;;6.78;;
51913;SDS011;37940;53.002;6.930;2022-08-05T01:58:44;11.88;;;6.18;;
51913;SDS011;37940;53.002;6.930;2022-08-05T02:01:13;10.40;;;6.13;;
51913;SDS011;37940;53.002;6.930;2022-08-05T02:03:45;13.38;;;6.70;;
51913;SDS011;37940;53.002;6.930;2022-08-05T02:06:12;11.50;;;7.60;;
51913;SDS011;37940;53.002;6.930;2022-08-05T02:08:39;8.98;;;6.82;;
51913;SDS011;37940;53.002;6.930;2022-08-05T02:11:07;14.15;;;7.13;;
51913;SDS011;37940;53.002;6.930;2022-08-05T02:13:46;14.73;;;7.15;;
51913;SDS011;37940;53.002;6.930;2022-08-05T02:18:51;12.70;;;7.55;;
51913;SDS011;37940;53.002;6.930;2022-08-05T02:21:29;10.20;;;7.22;;
51913;SDS011;37940;53.002;6.930;2022-08-05T02:24:00;14.45;;;8.45;;
51913;SDS011;37940;53.002;6.930;2022-08-05T02:26:45;13.18;;;7.65;;
51913;SDS011;37940;53.002;6.930;2022-08-05T02:31:40;11.80;;;7.72;;
51913;SDS011;37940;53.002;6.930;2022-08-05T02:34:08;13.35;;;7.70;;
51913;SDS011;37940;53.002;6.930;2022-08-05T02:36:46;11.90;;;7.05;;
51913;SDS011;37940;53.002;6.930;2022-08-05T02:39:15;13.75;;;7.75;;
51913;SDS011;37940;53.002;6.930;2022-08-05T02:41:43;13.70;;;7.97;;
51913;SDS011;37940;53.002;6.930;2022-08-05T02:44:11;11.15;;;6.97;;
51913;SDS011;37940;53.002;6.930;2022-08-05T02:46:38;13.43;;;7.30;;
51913;SDS011;37940;53.002;6.930;2022-08-05T02:49:05;12.85;;;7.07;;
51913;SDS011;37940;53.002;6.930;2022-08-05T02:51:32;12.38;;;7.28;;
51913;SDS011;37940;53.002;6.930;2022-08-05T02:54:01;16.42;;;8.10;;
51913;SDS011;37940;53.002;6.930;2022-08-05T02:56:28;12.00;;;7.78;;
51913;SDS011;37940;53.002;6.930;2022-08-05T02:58:54;14.02;;;7.88;;
51913;SDS011;37940;53.002;6.930;2022-08-05T03:01:25;13.40;;;7.25;;
51913;SDS011;37940;53.002;6.930;2022-08-05T03:03:53;12.07;;;8.00;;
51913;SDS011;37940;53.002;6.930;2022-08-05T03:06:22;12.02;;;7.85;;
51913;SDS011;37940;53.002;6.930;2022-08-05T03:08:48;12.43;;;8.05;;
51913;SDS011;37940;53.002;6.930;2022-08-05T03:11:19;11.52;;;7.80;;
51913;SDS011;37940;53.002;6.930;2022-08-05T03:13:46;11.32;;;7.50;;
51913;SDS011;37940;53.002;6.930;2022-08-05T03:16:12;12.75;;;7.28;;
51913;SDS011;37940;53.002;6.930;2022-08-05T03:18:38;11.30;;;6.65;;
51913;SDS011;37940;53.002;6.930;2022-08-05T03:21:04;13.93;;;7.03;;
51913;SDS011;37940;53.002;6.930;2022-08-05T03:23:31;11.52;;;6.88;;
51913;SDS011;37940;53.002;6.930;2022-08-05T03:25:58;12.57;;;7.25;;
51913;SDS011;37940;53.002;6.930;2022-08-05T03:28:24;12.80;;;7.90;;
51913;SDS011;37940;53.002;6.930;2022-08-05T03:30:51;12.48;;;7.15;;
51913;SDS011;37940;53.002;6.930;2022-08-05T03:33:17;10.77;;;6.13;;
51913;SDS011;37940;53.002;6.930;2022-08-05T03:35:44;10.68;;;6.65;;
51913;SDS011;37940;53.002;6.930;2022-08-05T03:38:10;11.93;;;6.68;;
51913;SDS011;37940;53.002;6.930;2022-08-05T03:40:41;12.30;;;7.10;;
51913;SDS011;37940;53.002;6.930;2022-08-05T03:43:07;12.02;;;6.47;;
51913;SDS011;37940;53.002;6.930;2022-08-05T03:45:33;12.35;;;6.25;;
51913;SDS011;37940;53.002;6.930;2022-08-05T03:47:59;12.15;;;7.35;;
51913;SDS011;37940;53.002;6.930;2022-08-05T03:50:32;10.57;;;6.53;;
51913;SDS011;37940;53.002;6.930;2022-08-05T03:53:07;12.23;;;6.75;;
51913;SDS011;37940;53.002;6.930;2022-08-05T03:55:41;9.55;;;6.32;;
51913;SDS011;37940;53.002;6.930;2022-08-05T03:58:15;9.75;;;6.30;;
51913;SDS011;37940;53.002;6.930;2022-08-05T04:00:43;11.30;;;6.20;;
51913;SDS011;37940;53.002;6.930;2022-08-05T04:03:10;11.45;;;6.10;;
51913;SDS011;37940;53.002;6.930;2022-08-05T04:05:37;8.50;;;6.32;;
51913;SDS011;37940;53.002;6.930;2022-08-05T04:08:08;10.50;;;6.22;;
51913;SDS011;37940;53.002;6.930;2022-08-05T04:10:35;10.70;;;6.43;;
51913;SDS011;37940;53.002;6.930;2022-08-05T04:13:01;9.70;;;6.50;;
51913;SDS011;37940;53.002;6.930;2022-08-05T04:15:27;8.93;;;6.00;;
51913;SDS011;37940;53.002;6.930;2022-08-05T04:17:54;12.77;;;6.43;;
51913;SDS011;37940;53.002;6.930;2022-08-05T04:20:21;9.68;;;6.60;;
51913;SDS011;37940;53.002;6.930;2022-08-05T04:22:47;10.63;;;6.22;;
51913;SDS011;37940;53.002;6.930;2022-08-05T04:25:13;14.05;;;5.93;;
51913;SDS011;37940;53.002;6.930;2022-08-05T04:27:39;11.95;;;6.00;;
51913;SDS011;37940;53.002;6.930;2022-08-05T04:30:05;10.02;;;5.80;;
51913;SDS011;37940;53.002;6.930;2022-08-05T04:32:32;13.35;;;6.75;;
51913;SDS011;37940;53.002;6.930;2022-08-05T04:34:58;10.23;;;5.90;;
51913;SDS011;37940;53.002;6.930;2022-08-05T04:37:23;11.15;;;6.45;;
51913;SDS011;37940;53.002;6.930;2022-08-05T04:39:49;9.20;;;5.72;;
51913;SDS011;37940;53.002;6.930;2022-08-05T04:42:15;12.60;;;5.55;;
51913;SDS011;37940;53.002;6.930;2022-08-05T04:44:40;12.57;;;5.40;;
51913;SDS011;37940;53.002;6.930;2022-08-05T04:47:06;10.32;;;5.32;;
51913;SDS011;37940;53.002;6.930;2022-08-05T04:49:32;9.07;;;6.05;;
51913;SDS011;37940;53.002;6.930;2022-08-05T04:51:57;11.70;;;5.70;;
51913;SDS011;37940;53.002;6.930;2022-08-05T04:54:23;8.75;;;5.75;;
51913;SDS011;37940;53.002;6.930;2022-08-05T04:56:54;8.38;;;5.60;;
51913;SDS011;37940;53.002;6.930;2022-08-05T04:59:20;8.77;;;5.32;;
51913;SDS011;37940;53.002;6.930;2022-08-05T05:01:50;8.10;;;5.38;;
51913;SDS011;37940;53.002;6.930;2022-08-05T05:04:16;11.35;;;5.88;;
51913;SDS011;37940;53.002;6.930;2022-08-05T05:06:42;8.45;;;5.60;;
51913;SDS011;37940;53.002;6.930;2022-08-05T05:09:09;9.80;;;5.60;;
51913;SDS011;37940;53.002;6.930;2022-08-05T05:11:35;9.20;;;5.93;;
51913;SDS011;37940;53.002;6.930;2022-08-05T05:14:01;7.38;;;5.22;;
51913;SDS011;37940;53.002;6.930;2022-08-05T05:16:27;8.90;;;5.13;;
51913;SDS011;37940;53.002;6.930;2022-08-05T05:18:53;10.30;;;5.05;;
51913;SDS011;37940;53.002;6.930;2022-08-05T05:21:19;9.80;;;5.30;;
51913;SDS011;37940;53.002;6.930;2022-08-05T05:23:45;10.30;;;4.75;;
51913;SDS011;37940;53.002;6.930;2022-08-05T05:26:11;13.07;;;4.95;;
51913;SDS011;37940;53.002;6.930;2022-08-05T05:28:36;10.57;;;5.63;;
51913;SDS011;37940;53.002;6.930;2022-08-05T05:31:02;9.40;;;4.43;;
51913;SDS011;37940;53.002;6.930;2022-08-05T05:33:28;9.57;;;4.53;;
51913;SDS011;37940;53.002;6.930;2022-08-05T05:35:53;11.02;;;4.97;;
51913;SDS011;37940;53.002;6.930;2022-08-05T05:38:19;8.93;;;4.95;;
51913;SDS011;37940;53.002;6.930;2022-08-05T05:40:45;8.57;;;4.45;;
51913;SDS011;37940;53.002;6.930;2022-08-05T05:43:10;11.90;;;4.75;;
51913;SDS011;37940;53.002;6.930;2022-08-05T05:45:36;7.15;;;4.38;;
51913;SDS011;37940;53.002;6.930;2022-08-05T05:48:02;10.90;;;4.78;;
51913;SDS011;37940;53.002;6.930;2022-08-05T05:50:32;8.10;;;4.25;;
51913;SDS011;37940;53.002;6.930;2022-08-05T05:53:00;10.55;;;4.15;;
51913;SDS011;37940;53.002;6.930;2022-08-05T05:55:26;12.02;;;4.32;;
51913;SDS011;37940;53.002;6.930;2022-08-05T05:57:52;10.80;;;4.13;;
51913;SDS011;37940;53.002;6.930;2022-08-05T06:00:18;9.25;;;4.70;;
51913;SDS011;37940;53.002;6.930;2022-08-05T06:02:45;7.57;;;4.10;;
51913;SDS011;37940;53.002;6.930;2022-08-05T06:05:14;7.93;;;4.10;;
51913;SDS011;37940;53.002;6.930;2022-08-05T06:07:41;8.02;;;4.20;;
51913;SDS011;37940;53.002;6.930;2022-08-05T06:10:07;8.73;;;4.60;;
51913;SDS011;37940;53.002;6.930;2022-08-05T06:12:34;10.93;;;4.10;;
51913;SDS011;37940;53.002;6.930;2022-08-05T06:15:01;13.07;;;4.10;;
51913;SDS011;37940;53.002;6.930;2022-08-05T06:17:28;7.78;;;3.90;;
51913;SDS011;37940;53.002;6.930;2022-08-05T06:19:53;7.93;;;4.03;;
51913;SDS011;37940;53.002;6.930;2022-08-05T06:22:23;9.75;;;4.15;;
51913;SDS011;37940;53.002;6.930;2022-08-05T06:24:51;6.00;;;3.60;;
51913;SDS011;37940;53.002;6.930;2022-08-05T06:27:17;9.73;;;4.05;;
51913;SDS011;37940;53.002;6.930;2022-08-05T06:29:43;7.75;;;3.67;;
51913;SDS011;37940;53.002;6.930;2022-08-05T06:32:09;8.13;;;3.80;;
51913;SDS011;37940;53.002;6.930;2022-08-05T06:34:35;6.47;;;3.42;;
51913;SDS011;37940;53.002;6.930;2022-08-05T06:37:01;8.50;;;3.45;;
51913;SDS011;37940;53.002;6.930;2022-08-05T06:39:27;7.55;;;3.38;;
51913;SDS011;37940;53.002;6.930;2022-08-05T06:41:54;7.70;;;3.40;;
51913;SDS011;37940;53.002;6.930;2022-08-05T06:44:25;7.53;;;3.37;;
51913;SDS011;37940;53.002;6.930;2022-08-05T06:46:51;9.25;;;3.60;;
51913;SDS011;37940;53.002;6.930;2022-08-05T06:49:17;7.65;;;3.22;;
51913;SDS011;37940;53.002;6.930;2022-08-05T06:51:42;8.45;;;3.47;;
51913;SDS011;37940;53.002;6.930;2022-08-05T06:54:08;9.00;;;3.88;;
51913;SDS011;37940;53.002;6.930;2022-08-05T06:56:34;5.78;;;3.05;;
51913;SDS011;37940;53.002;6.930;2022-08-05T06:58:59;6.43;;;2.80;;
51913;SDS011;37940;53.002;6.930;2022-08-05T07:01:26;5.53;;;2.60;;
51913;SDS011;37940;53.002;6.930;2022-08-05T07:03:51;6.03;;;2.60;;
51913;SDS011;37940;53.002;6.930;2022-08-05T07:06:17;5.60;;;2.30;;
51913;SDS011;37940;53.002;6.930;2022-08-05T07:08:43;6.30;;;2.60;;
51913;SDS011;37940;53.002;6.930;2022-08-05T07:11:09;6.10;;;2.40;;
51913;SDS011;37940;53.002;6.930;2022-08-05T07:13:35;7.22;;;2.70;;
51913;SDS011;37940;53.002;6.930;2022-08-05T07:16:19;6.00;;;2.50;;
51913;SDS011;37940;53.002;6.930;2022-08-05T07:19:03;9.90;;;3.10;;
51913;SDS011;37940;53.002;6.930;2022-08-05T07:21:29;5.70;;;2.47;;
51913;SDS011;37940;53.002;6.930;2022-08-05T07:23:55;5.53;;;2.60;;
51913;SDS011;37940;53.002;6.930;2022-08-05T07:26:21;5.80;;;2.58;;
51913;SDS011;37940;53.002;6.930;2022-08-05T07:28:47;6.70;;;3.00;;
51913;SDS011;37940;53.002;6.930;2022-08-05T07:31:14;6.78;;;2.60;;
51913;SDS011;37940;53.002;6.930;2022-08-05T07:33:40;4.88;;;2.40;;
51913;SDS011;37940;53.002;6.930;2022-08-05T07:36:06;7.82;;;3.00;;
51913;SDS011;37940;53.002;6.930;2022-08-05T07:38:33;5.40;;;2.63;;
51913;SDS011;37940;53.002;6.930;2022-08-05T07:41:01;5.03;;;2.35;;
51913;SDS011;37940;53.002;6.930;2022-08-05T07:43:31;5.07;;;2.05;;
51913;SDS011;37940;53.002;6.930;2022-08-05T07:45:56;5.57;;;1.70;;
51913;SDS011;37940;53.002;6.930;2022-08-05T07:48:22;4.05;;;2.00;;
51913;SDS011;37940;53.002;6.930;2022-08-05T07:50:48;6.20;;;2.13;;
51913;SDS011;37940;53.002;6.930;2022-08-05T07:53:13;4.22;;;1.90;;
51913;SDS011;37940;53.002;6.930;2022-08-05T07:55:39;5.65;;;1.88;;
51913;SDS011;37940;53.002;6.930;2022-08-05T07:58:05;4.93;;;1.80;;
51913;SDS011;37940;53.002;6.930;2022-08-05T08:00:30;5.03;;;1.80;;
51913;SDS011;37940;53.002;6.930;2022-08-05T08:02:56;5.82;;;1.80;;
51913;SDS011;37940;53.002;6.930;2022-08-05T08:05:22;4.65;;;1.60;;
51913;SDS011;37940;53.002;6.930;2022-08-05T08:07:47;3.58;;;1.50;;
51913;SDS011;37940;53.002;6.930;2022-08-05T08:10:13;4.05;;;1.40;;
51913;SDS011;37940;53.002;6.930;2022-08-05T08:12:39;5.65;;;1.40;;
51913;SDS011;37940;53.002;6.930;2022-08-05T08:15:05;5.20;;;1.63;;
51913;SDS011;37940;53.002;6.930;2022-08-05T08:17:32;3.42;;;1.60;;
51913;SDS011;37940;53.002;6.930;2022-08-05T08:19:58;5.88;;;1.50;;
51913;SDS011;37940;53.002;6.930;2022-08-05T08:22:25;4.57;;;1.63;;
51913;SDS011;37940;53.002;6.930;2022-08-05T08:24:51;3.63;;;1.60;;
51913;SDS011;37940;53.002;6.930;2022-08-05T08:27:17;6.43;;;1.90;;
51913;SDS011;37940;53.002;6.930;2022-08-05T08:29:43;6.30;;;2.00;;
51913;SDS011;37940;53.002;6.930;2022-08-05T08:32:08;5.10;;;1.80;;
51913;SDS011;37940;53.002;6.930;2022-08-05T08:34:34;5.63;;;2.10;;
51913;SDS011;37940;53.002;6.930;2022-08-05T08:37:00;5.40;;;2.15;;
51913;SDS011;37940;53.002;6.930;2022-08-05T08:39:26;6.20;;;1.92;;
51913;SDS011;37940;53.002;6.930;2022-08-05T08:41:53;7.13;;;1.83;;
51913;SDS011;37940;53.002;6.930;2022-08-05T08:44:22;4.85;;;1.70;;
51913;SDS011;37940;53.002;6.930;2022-08-05T08:46:49;3.58;;;1.90;;
51913;SDS011;37940;53.002;6.930;2022-08-05T08:49:16;3.60;;;1.50;;
51913;SDS011;37940;53.002;6.930;2022-08-05T08:51:48;3.22;;;1.40;;
51913;SDS011;37940;53.002;6.930;2022-08-05T08:54:37;2.30;;;1.13;;
51913;SDS011;37940;53.002;6.930;2022-08-05T08:57:04;3.83;;;1.33;;
51913;SDS011;37940;53.002;6.930;2022-08-05T08:59:31;4.93;;;1.50;;
51913;SDS011;37940;53.002;6.930;2022-08-05T09:01:57;3.55;;;1.40;;
51913;SDS011;37940;53.002;6.930;2022-08-05T09:04:24;4.05;;;1.40;;
51913;SDS011;37940;53.002;6.930;2022-08-05T09:06:51;3.80;;;1.42;;
51913;SDS011;37940;53.002;6.930;2022-08-05T09:09:16;2.53;;;1.20;;
51913;SDS011;37940;53.002;6.930;2022-08-05T09:11:42;2.65;;;1.10;;
51913;SDS011;37940;53.002;6.930;2022-08-05T09:14:08;2.28;;;1.15;;
51913;SDS011;37940;53.002;6.930;2022-08-05T09:16:36;2.15;;;1.00;;
51913;SDS011;37940;53.002;6.930;2022-08-05T09:19:03;3.50;;;1.13;;
51913;SDS011;37940;53.002;6.930;2022-08-05T09:21:29;3.78;;;1.10;;
51913;SDS011;37940;53.002;6.930;2022-08-05T09:24:01;2.20;;;0.90;;
51913;SDS011;37940;53.002;6.930;2022-08-05T09:26:28;2.75;;;1.10;;
51913;SDS011;37940;53.002;6.930;2022-08-05T09:28:58;3.28;;;1.05;;
51913;SDS011;37940;53.002;6.930;2022-08-05T09:31:28;2.55;;;1.13;;
51913;SDS011;37940;53.002;6.930;2022-08-05T09:34:04;2.92;;;1.00;;
51913;SDS011;37940;53.002;6.930;2022-08-05T09:36:43;1.55;;;0.90;;
51913;SDS011;37940;53.002;6.930;2022-08-05T09:39:14;4.07;;;1.20;;
51913;SDS011;37940;53.002;6.930;2022-08-05T09:41:57;2.88;;;0.98;;
51913;SDS011;37940;53.002;6.930;2022-08-05T09:44:34;3.92;;;1.45;;
51913;SDS011;37940;53.002;6.930;2022-08-05T09:49:44;2.45;;;0.93;;
51913;SDS011;37940;53.002;6.930;2022-08-05T09:52:22;3.15;;;1.05;;
51913;SDS011;37940;53.002;6.930;2022-08-05T09:54:58;2.00;;;0.90;;
51913;SDS011;37940;53.002;6.930;2022-08-05T10:05:08;3.28;;;1.00;;
51913;SDS011;37940;53.002;6.930;2022-08-05T10:10:11;6.80;;;1.10;;
51913;SDS011;37940;53.002;6.930;2022-08-05T10:12:41;3.88;;;0.95;;
51913;SDS011;37940;53.002;6.930;2022-08-05T10:15:12;1.83;;;0.65;;
51913;SDS011;37940;53.002;6.930;2022-08-05T10:17:39;1.73;;;0.80;;
51913;SDS011;37940;53.002;6.930;2022-08-05T10:20:05;3.40;;;0.80;;
51913;SDS011;37940;53.002;6.930;2022-08-05T10:22:31;4.00;;;0.85;;
51913;SDS011;37940;53.002;6.930;2022-08-05T10:24:58;3.90;;;0.90;;
51913;SDS011;37940;53.002;6.930;2022-08-05T10:27:24;4.43;;;0.90;;
51913;SDS011;37940;53.002;6.930;2022-08-05T10:29:51;3.17;;;0.80;;
51913;SDS011;37940;53.002;6.930;2022-08-05T10:32:17;1.55;;;0.65;;
51913;SDS011;37940;53.002;6.930;2022-08-05T10:34:43;1.35;;;0.70;;
51913;SDS011;37940;53.002;6.930;2022-08-05T10:37:10;2.17;;;0.90;;
51913;SDS011;37940;53.002;6.930;2022-08-05T10:39:37;2.67;;;1.20;;
51913;SDS011;37940;53.002;6.930;2022-08-05T10:44:37;1.23;;;0.60;;
51913;SDS011;37940;53.002;6.930;2022-08-05T10:47:11;1.92;;;0.63;;
51913;SDS011;37940;53.002;6.930;2022-08-05T10:52:42;2.75;;;0.80;;
51913;SDS011;37940;53.002;6.930;2022-08-05T10:55:12;2.58;;;0.80;;
51913;SDS011;37940;53.002;6.930;2022-08-05T10:57:38;1.67;;;0.60;;
51913;SDS011;37940;53.002;6.930;2022-08-05T11:00:23;2.17;;;0.60;;
51913;SDS011;37940;53.002;6.930;2022-08-05T11:05:28;3.30;;;0.82;;
51913;SDS011;37940;53.002;6.930;2022-08-05T11:07:57;1.88;;;0.60;;
51913;SDS011;37940;53.002;6.930;2022-08-05T11:10:28;1.48;;;0.77;;
51913;SDS011;37940;53.002;6.930;2022-08-05T11:12:55;2.63;;;0.57;;
51913;SDS011;37940;53.002;6.930;2022-08-05T11:15:26;2.50;;;0.70;;
51913;SDS011;37940;53.002;6.930;2022-08-05T11:20:40;2.80;;;0.60;;
51913;SDS011;37940;53.002;6.930;2022-08-05T11:33:28;1.30;;;0.60;;
51913;SDS011;37940;53.002;6.930;2022-08-05T11:36:05;1.75;;;0.50;;
51913;SDS011;37940;53.002;6.930;2022-08-05T11:46:31;0.95;;;0.60;;
51913;SDS011;37940;53.002;6.930;2022-08-05T11:48:57;1.00;;;0.47;;
51913;SDS011;37940;53.002;6.930;2022-08-05T11:51:25;1.45;;;0.40;;
51913;SDS011;37940;53.002;6.930;2022-08-05T11:53:52;0.82;;;0.38;;
51913;SDS011;37940;53.002;6.930;2022-08-05T11:56:19;1.83;;;0.50;;
51913;SDS011;37940;53.002;6.930;2022-08-05T11:58:46;3.63;;;0.50;;
51913;SDS011;37940;53.002;6.930;2022-08-05T12:01:13;2.70;;;0.70;;
51913;SDS011;37940;53.002;6.930;2022-08-05T12:06:12;2.70;;;0.45;;
51913;SDS011;37940;53.002;6.930;2022-08-05T12:11:09;2.47;;;0.60;;
51913;SDS011;37940;53.002;6.930;2022-08-05T12:13:37;1.98;;;0.40;;
51913;SDS011;37940;53.002;6.930;2022-08-05T12:16:05;1.08;;;0.45;;
51913;SDS011;37940;53.002;6.930;2022-08-05T12:18:34;1.52;;;0.63;;
51913;SDS011;37940;53.002;6.930;2022-08-05T12:21:13;2.33;;;0.50;;
51913;SDS011;37940;53.002;6.930;2022-08-05T12:26:21;1.23;;;0.50;;
51913;SDS011;37940;53.002;6.930;2022-08-05T12:28:47;3.90;;;0.65;;
51913;SDS011;37940;53.002;6.930;2022-08-05T12:31:13;4.38;;;0.70;;
51913;SDS011;37940;53.002;6.930;2022-08-05T12:33:39;1.55;;;0.50;;
51913;SDS011;37940;53.002;6.930;2022-08-05T12:36:05;3.72;;;0.80;;
51913;SDS011;37940;53.002;6.930;2022-08-05T12:38:32;2.88;;;0.68;;
51913;SDS011;37940;53.002;6.930;2022-08-05T12:40:57;4.22;;;0.73;;
51913;SDS011;37940;53.002;6.930;2022-08-05T12:43:23;1.83;;;0.73;;
51913;SDS011;37940;53.002;6.930;2022-08-05T12:45:53;1.73;;;0.60;;
51913;SDS011;37940;53.002;6.930;2022-08-05T12:48:20;2.03;;;0.77;;
51913;SDS011;37940;53.002;6.930;2022-08-05T12:51:41;2.30;;;0.52;;
51913;SDS011;37940;53.002;6.930;2022-08-05T12:53:34;0.93;;;0.52;;
51913;SDS011;37940;53.002;6.930;2022-08-05T12:56:16;1.45;;;0.70;;
51913;SDS011;37940;53.002;6.930;2022-08-05T13:01:38;1.67;;;0.63;;
51913;SDS011;37940;53.002;6.930;2022-08-05T13:04:05;3.13;;;0.73;;
51913;SDS011;37940;53.002;6.930;2022-08-05T13:06:30;2.10;;;0.50;;
51913;SDS011;37940;53.002;6.930;2022-08-05T13:08:56;2.63;;;0.80;;
51913;SDS011;37940;53.002;6.930;2022-08-05T13:11:29;2.83;;;0.60;;
51913;SDS011;37940;53.002;6.930;2022-08-05T13:13:56;1.52;;;0.70;;
51913;SDS011;37940;53.002;6.930;2022-08-05T13:16:22;3.90;;;0.88;;
51913;SDS011;37940;53.002;6.930;2022-08-05T13:18:54;5.65;;;0.73;;
51913;SDS011;37940;53.002;6.930;2022-08-05T13:23:46;2.38;;;0.65;;
51913;SDS011;37940;53.002;6.930;2022-08-05T13:26:12;3.95;;;0.80;;
51913;SDS011;37940;53.002;6.930;2022-08-05T13:28:37;4.10;;;0.60;;
51913;SDS011;37940;53.002;6.930;2022-08-05T13:31:03;5.28;;;0.80;;
51913;SDS011;37940;53.002;6.930;2022-08-05T13:33:29;2.70;;;0.60;;
51913;SDS011;37940;53.002;6.930;2022-08-05T13:35:55;2.08;;;0.70;;
51913;SDS011;37940;53.002;6.930;2022-08-05T13:38:20;4.05;;;0.93;;
51913;SDS011;37940;53.002;6.930;2022-08-05T13:40:46;2.38;;;0.63;;
51913;SDS011;37940;53.002;6.930;2022-08-05T13:43:12;0.52;;;0.47;;
51913;SDS011;37940;53.002;6.930;2022-08-05T13:45:37;1.25;;;0.60;;
51913;SDS011;37940;53.002;6.930;2022-08-05T13:48:03;1.63;;;0.60;;
51913;SDS011;37940;53.002;6.930;2022-08-05T13:50:29;4.10;;;0.75;;
51913;SDS011;37940;53.002;6.930;2022-08-05T13:52:55;1.17;;;0.63;;
51913;SDS011;37940;53.002;6.930;2022-08-05T13:55:20;2.38;;;0.60;;
51913;SDS011;37940;53.002;6.930;2022-08-05T13:57:46;1.80;;;0.70;;
51913;SDS011;37940;53.002;6.930;2022-08-05T14:00:12;1.60;;;0.63;;
51913;SDS011;37940;53.002;6.930;2022-08-05T14:02:38;1.83;;;0.70;;
51913;SDS011;37940;53.002;6.930;2022-08-05T14:05:04;2.17;;;0.60;;
51913;SDS011;37940;53.002;6.930;2022-08-05T14:07:39;3.17;;;0.70;;
51913;SDS011;37940;53.002;6.930;2022-08-05T14:10:08;2.03;;;0.80;;
51913;SDS011;37940;53.002;6.930;2022-08-05T14:12:35;2.78;;;0.50;;
51913;SDS011;37940;53.002;6.930;2022-08-05T14:15:01;5.35;;;1.05;;
51913;SDS011;37940;53.002;6.930;2022-08-05T14:17:28;1.85;;;0.60;;
51913;SDS011;37940;53.002;6.930;2022-08-05T14:19:53;2.40;;;0.65;;
51913;SDS011;37940;53.002;6.930;2022-08-05T14:22:20;2.45;;;0.50;;
51913;SDS011;37940;53.002;6.930;2022-08-05T14:24:46;2.55;;;0.63;;
51913;SDS011;37940;53.002;6.930;2022-08-05T14:27:12;2.20;;;0.60;;
51913;SDS011;37940;53.002;6.930;2022-08-05T14:29:37;3.28;;;0.60;;
51913;SDS011;37940;53.002;6.930;2022-08-05T14:32:04;2.33;;;0.77;;
51913;SDS011;37940;53.002;6.930;2022-08-05T14:34:30;3.95;;;0.50;;
51913;SDS011;37940;53.002;6.930;2022-08-05T14:36:56;2.05;;;0.70;;
51913;SDS011;37940;53.002;6.930;2022-08-05T14:39:22;1.40;;;0.68;;
51913;SDS011;37940;53.002;6.930;2022-08-05T14:41:49;2.53;;;0.63;;
51913;SDS011;37940;53.002;6.930;2022-08-05T14:44:15;2.03;;;0.55;;
51913;SDS011;37940;53.002;6.930;2022-08-05T14:46:41;3.95;;;0.70;;
51913;SDS011;37940;53.002;6.930;2022-08-05T14:49:07;0.70;;;0.40;;
51913;SDS011;37940;53.002;6.930;2022-08-05T14:51:34;1.27;;;0.40;;
51913;SDS011;37940;53.002;6.930;2022-08-05T14:54:03;1.33;;;0.68;;
51913;SDS011;37940;53.002;6.930;2022-08-05T14:56:32;1.13;;;0.50;;
51913;SDS011;37940;53.002;6.930;2022-08-05T14:58:59;2.70;;;0.90;;
51913;SDS011;37940;53.002;6.930;2022-08-05T15:01:25;2.05;;;0.80;;
51913;SDS011;37940;53.002;6.930;2022-08-05T15:03:51;3.00;;;0.75;;
51913;SDS011;37940;53.002;6.930;2022-08-05T15:06:17;2.97;;;0.68;;
51913;SDS011;37940;53.002;6.930;2022-08-05T15:08:43;8.88;;;1.25;;
51913;SDS011;37940;53.002;6.930;2022-08-05T15:11:09;6.10;;;0.90;;
51913;SDS011;37940;53.002;6.930;2022-08-05T15:13:35;3.97;;;1.20;;
51913;SDS011;37940;53.002;6.930;2022-08-05T15:16:01;7.35;;;1.30;;
51913;SDS011;37940;53.002;6.930;2022-08-05T15:18:27;2.95;;;0.80;;
51913;SDS011;37940;53.002;6.930;2022-08-05T15:20:53;3.17;;;0.90;;
51913;SDS011;37940;53.002;6.930;2022-08-05T15:23:19;5.07;;;1.13;;
51913;SDS011;37940;53.002;6.930;2022-08-05T15:25:44;1.77;;;0.70;;
51913;SDS011;37940;53.002;6.930;2022-08-05T15:28:11;3.83;;;1.02;;
51913;SDS011;37940;53.002;6.930;2022-08-05T15:30:38;6.07;;;1.38;;
51913;SDS011;37940;53.002;6.930;2022-08-05T15:33:03;2.30;;;0.90;;
51913;SDS011;37940;53.002;6.930;2022-08-05T15:35:30;2.50;;;0.80;;
51913;SDS011;37940;53.002;6.930;2022-08-05T15:37:56;3.35;;;0.75;;
51913;SDS011;37940;53.002;6.930;2022-08-05T15:40:22;2.28;;;1.02;;
51913;SDS011;37940;53.002;6.930;2022-08-05T15:42:48;4.80;;;1.13;;
51913;SDS011;37940;53.002;6.930;2022-08-05T15:45:14;6.00;;;1.20;;
51913;SDS011;37940;53.002;6.930;2022-08-05T15:47:41;4.60;;;0.90;;
51913;SDS011;37940;53.002;6.930;2022-08-05T15:50:08;5.75;;;1.02;;
51913;SDS011;37940;53.002;6.930;2022-08-05T15:52:35;3.15;;;0.90;;
51913;SDS011;37940;53.002;6.930;2022-08-05T15:55:02;2.85;;;0.88;;